sensor_id;sensor_type;location;lat;lon;timestamp;pressure;altitude;pressure_sealevel;temperature;humidity
39209;BME280;24929;51.982;4.664;2022-12-07T00:02:14;78045.06;;;-143.36;nan
39209;BME280;24929;51.982;4.664;2022-12-07T00:04:39;78037.03;;;-143.36;nan
39209;BME280;24929;51.982;4.664;2022-12-07T00:07:05;78045.06;;;-143.36;nan
39209;BME280;24929;51.982;4.664;2022-12-07T00:09:30;78004.91;;;-143.36;nan
39209;BME280;24929;51.982;4.664;2022-12-07T00:11:55;77994.88;;;-143.36;nan
39209;BME280;24929;51.982;4.664;2022-12-07T00:14:21;77988.84;;;-143.36;nan
39209;BME280;24929;51.982;4.664;2022-12-07T00:16:49;77954.72;;;-143.36;nan
39209;BME280;24929;51.982;4.664;2022-12-07T00:19:14;77988.84;;;-143.36;nan
39209;BME280;24929;51.982;4.664;2022-12-07T00:21:40;77998.88;;;-143.36;nan
39209;BME280;24929;51.982;4.664;2022-12-07T00:24:06;78002.91;;;-143.36;nan
39209;BME280;24929;51.982;4.664;2022-12-07T00:26:34;77920.59;;;-143.36;nan
39209;BME280;24929;51.982;4.664;2022-12-07T00:29:05;77936.66;;;-143.36;nan
39209;BME280;24929;51.982;4.664;2022-12-07T00:31:36;77926.63;;;-143.36;nan
39209;BME280;24929;51.982;4.664;2022-12-07T00:34:05;77914.56;;;-143.36;nan
39209;BME280;24929;51.982;4.664;2022-12-07T00:36:31;77938.66;;;-143.36;nan
39209;BME280;24929;51.982;4.664;2022-12-07T00:38:58;77894.50;;;-143.36;nan
39209;BME280;24929;51.982;4.664;2022-12-07T00:41:25;77888.47;;;-143.36;nan
39209;BME280;24929;51.982;4.664;2022-12-07T00:43:51;77924.59;;;-143.36;nan
39209;BME280;24929;51.982;4.664;2022-12-07T00:46:18;77942.69;;;-143.36;nan
39209;BME280;24929;51.982;4.664;2022-12-07T00:48:44;77966.75;;;-143.36;nan
39209;BME280;24929;51.982;4.664;2022-12-07T00:51:11;77966.75;;;-143.36;nan
39209;BME280;24929;51.982;4.664;2022-12-07T00:53:38;77954.72;;;-143.36;nan
39209;BME280;24929;51.982;4.664;2022-12-07T00:56:15;77920.59;;;-143.36;nan
39209;BME280;24929;51.982;4.664;2022-12-07T00:58:41;77990.84;;;-143.36;nan
39209;BME280;24929;51.982;4.664;2022-12-07T01:01:08;77954.72;;;-143.36;nan
39209;BME280;24929;51.982;4.664;2022-12-07T01:03:34;77976.81;;;-143.36;nan
39209;BME280;24929;51.982;4.664;2022-12-07T01:06:00;77974.78;;;-143.36;nan
39209;BME280;24929;51.982;4.664;2022-12-07T01:08:27;77996.88;;;-143.36;nan
39209;BME280;24929;51.982;4.664;2022-12-07T01:11:05;77968.78;;;-143.36;nan
39209;BME280;24929;51.982;4.664;2022-12-07T01:13:31;77972.78;;;-143.36;nan
39209;BME280;24929;51.982;4.664;2022-12-07T01:15:58;77940.66;;;-143.36;nan
39209;BME280;24929;51.982;4.664;2022-12-07T01:18:25;77982.81;;;-143.36;nan
39209;BME280;24929;51.982;4.664;2022-12-07T01:21:02;77960.75;;;-143.36;nan
39209;BME280;24929;51.982;4.664;2022-12-07T01:23:28;77960.75;;;-143.36;nan
39209;BME280;24929;51.982;4.664;2022-12-07T01:25:58;77912.56;;;-143.36;nan
39209;BME280;24929;51.982;4.664;2022-12-07T01:28:27;77932.63;;;-143.36;nan
39209;BME280;24929;51.982;4.664;2022-12-07T01:30:57;77904.53;;;-143.36;nan
39209;BME280;24929;51.982;4.664;2022-12-07T01:33:23;77940.66;;;-143.36;nan
39209;BME280;24929;51.982;4.664;2022-12-07T01:35:48;77954.72;;;-143.36;nan
39209;BME280;24929;51.982;4.664;2022-12-07T01:38:14;77942.69;;;-143.36;nan
39209;BME280;24929;51.982;4.664;2022-12-07T01:40:39;77930.63;;;-143.36;nan
39209;BME280;24929;51.982;4.664;2022-12-07T01:43:15;77900.53;;;-143.36;nan
39209;BME280;24929;51.982;4.664;2022-12-07T01:45:42;77938.66;;;-143.36;nan
39209;BME280;24929;51.982;4.664;2022-12-07T01:48:09;77920.59;;;-143.36;nan
39209;BME280;24929;51.982;4.664;2022-12-07T01:50:36;77938.66;;;-143.36;nan
39209;BME280;24929;51.982;4.664;2022-12-07T01:53:06;77924.59;;;-143.36;nan
39209;BME280;24929;51.982;4.664;2022-12-07T01:55:37;77932.63;;;-143.36;nan
39209;BME280;24929;51.982;4.664;2022-12-07T01:58:04;77976.81;;;-143.36;nan
39209;BME280;24929;51.982;4.664;2022-12-07T02:00:29;78002.91;;;-143.36;nan
39209;BME280;24929;51.982;4.664;2022-12-07T02:02:59;77960.75;;;-143.36;nan
39209;BME280;24929;51.982;4.664;2022-12-07T02:05:28;77978.81;;;-143.36;nan
39209;BME280;24929;51.982;4.664;2022-12-07T02:07:55;77942.69;;;-143.36;nan
39209;BME280;24929;51.982;4.664;2022-12-07T02:10:26;77974.78;;;-143.36;nan
39209;BME280;24929;51.982;4.664;2022-12-07T02:13:05;77948.69;;;-143.36;nan
39209;BME280;24929;51.982;4.664;2022-12-07T02:16:01;77918.59;;;-143.36;nan
39209;BME280;24929;51.982;4.664;2022-12-07T02:26:32;78014.94;;;-143.36;nan
39209;BME280;24929;51.982;4.664;2022-12-07T02:29:09;78012.94;;;-143.36;nan
39209;BME280;24929;51.982;4.664;2022-12-07T02:31:38;77986.84;;;-143.36;nan
39209;BME280;24929;51.982;4.664;2022-12-07T02:34:17;77938.66;;;-143.36;nan
39209;BME280;24929;51.982;4.664;2022-12-07T02:36:50;77984.84;;;-143.36;nan
39209;BME280;24929;51.982;4.664;2022-12-07T02:39:22;77968.78;;;-143.36;nan
39209;BME280;24929;51.982;4.664;2022-12-07T02:41:57;77968.78;;;-143.36;nan
39209;BME280;24929;51.982;4.664;2022-12-07T02:44:27;77978.81;;;-143.36;nan
39209;BME280;24929;51.982;4.664;2022-12-07T02:46:56;77986.84;;;-143.36;nan
39209;BME280;24929;51.982;4.664;2022-12-07T02:49:23;77968.78;;;-143.36;nan
39209;BME280;24929;51.982;4.664;2022-12-07T02:51:49;77976.81;;;-143.36;nan
39209;BME280;24929;51.982;4.664;2022-12-07T02:54:18;77938.66;;;-143.36;nan
39209;BME280;24929;51.982;4.664;2022-12-07T03:02:21;77912.56;;;-143.36;nan
39209;BME280;24929;51.982;4.664;2022-12-07T03:07:51;77884.47;;;-143.36;nan
39209;BME280;24929;51.982;4.664;2022-12-07T03:10:31;77892.50;;;-143.36;nan
39209;BME280;24929;51.982;4.664;2022-12-07T03:18:34;77938.66;;;-143.36;nan
39209;BME280;24929;51.982;4.664;2022-12-07T03:21:05;77930.63;;;-143.36;nan
39209;BME280;24929;51.982;4.664;2022-12-07T03:23:35;77962.75;;;-143.36;nan
39209;BME280;24929;51.982;4.664;2022-12-07T03:26:02;77940.66;;;-143.36;nan
39209;BME280;24929;51.982;4.664;2022-12-07T03:28:34;77914.56;;;-143.36;nan
39209;BME280;24929;51.982;4.664;2022-12-07T03:31:18;77888.47;;;-143.36;nan
39209;BME280;24929;51.982;4.664;2022-12-07T03:33:53;77888.47;;;-143.36;nan
39209;BME280;24929;51.982;4.664;2022-12-07T03:39:20;77890.47;;;-143.36;nan
39209;BME280;24929;51.982;4.664;2022-12-07T03:41:48;77954.72;;;-143.36;nan
39209;BME280;24929;51.982;4.664;2022-12-07T03:44:15;77980.81;;;-143.36;nan
39209;BME280;24929;51.982;4.664;2022-12-07T03:52:02;77968.78;;;-143.36;nan
39209;BME280;24929;51.982;4.664;2022-12-07T03:54:44;77968.78;;;-143.36;nan
39209;BME280;24929;51.982;4.664;2022-12-07T03:57:33;77970.78;;;-143.36;nan
39209;BME280;24929;51.982;4.664;2022-12-07T03:59:59;77996.88;;;-143.36;nan
39209;BME280;24929;51.982;4.664;2022-12-07T04:02:27;77984.84;;;-143.36;nan
39209;BME280;24929;51.982;4.664;2022-12-07T04:04:54;77976.81;;;-143.36;nan
39209;BME280;24929;51.982;4.664;2022-12-07T04:07:20;78004.91;;;-143.36;nan
39209;BME280;24929;51.982;4.664;2022-12-07T04:09:45;77998.88;;;-143.36;nan
39209;BME280;24929;51.982;4.664;2022-12-07T04:12:11;78012.94;;;-143.36;nan
39209;BME280;24929;51.982;4.664;2022-12-07T04:14:36;78033.00;;;-143.36;nan
39209;BME280;24929;51.982;4.664;2022-12-07T04:17:01;78045.06;;;-143.36;nan
39209;BME280;24929;51.982;4.664;2022-12-07T04:19:32;77984.84;;;-143.36;nan
39209;BME280;24929;51.982;4.664;2022-12-07T04:22:02;78067.13;;;-143.36;nan
39209;BME280;24929;51.982;4.664;2022-12-07T04:24:28;78107.28;;;-143.36;nan
39209;BME280;24929;51.982;4.664;2022-12-07T04:26:54;78091.22;;;-143.36;nan
39209;BME280;24929;51.982;4.664;2022-12-07T04:29:20;78115.31;;;-143.36;nan
39209;BME280;24929;51.982;4.664;2022-12-07T04:31:46;78101.25;;;-143.36;nan
39209;BME280;24929;51.982;4.664;2022-12-07T04:34:12;78095.25;;;-143.36;nan
39209;BME280;24929;51.982;4.664;2022-12-07T04:36:38;78073.16;;;-143.36;nan
39209;BME280;24929;51.982;4.664;2022-12-07T04:39:05;78051.06;;;-143.36;nan
39209;BME280;24929;51.982;4.664;2022-12-07T04:41:31;78075.16;;;-143.36;nan
39209;BME280;24929;51.982;4.664;2022-12-07T04:44:02;78045.06;;;-143.36;nan
39209;BME280;24929;51.982;4.664;2022-12-07T04:46:29;78002.91;;;-143.36;nan
39209;BME280;24929;51.982;4.664;2022-12-07T04:48:55;78083.19;;;-143.36;nan
39209;BME280;24929;51.982;4.664;2022-12-07T04:51:26;78027.00;;;-143.36;nan
39209;BME280;24929;51.982;4.664;2022-12-07T04:53:52;78087.22;;;-143.36;nan
39209;BME280;24929;51.982;4.664;2022-12-07T04:56:18;78037.03;;;-143.36;nan
39209;BME280;24929;51.982;4.664;2022-12-07T04:58:45;77986.84;;;-143.36;nan
39209;BME280;24929;51.982;4.664;2022-12-07T05:01:11;78022.97;;;-143.36;nan
39209;BME280;24929;51.982;4.664;2022-12-07T05:03:38;77968.78;;;-143.36;nan
39209;BME280;24929;51.982;4.664;2022-12-07T05:06:04;78000.88;;;-143.36;nan
39209;BME280;24929;51.982;4.664;2022-12-07T05:08:30;78010.94;;;-143.36;nan
39209;BME280;24929;51.982;4.664;2022-12-07T05:10:56;77984.84;;;-143.36;nan
39209;BME280;24929;51.982;4.664;2022-12-07T05:13:22;77974.78;;;-143.36;nan
39209;BME280;24929;51.982;4.664;2022-12-07T05:15:47;77936.66;;;-143.36;nan
39209;BME280;24929;51.982;4.664;2022-12-07T05:18:13;77966.75;;;-143.36;nan
39209;BME280;24929;51.982;4.664;2022-12-07T05:20:39;77994.88;;;-143.36;nan
39209;BME280;24929;51.982;4.664;2022-12-07T05:23:05;77970.78;;;-143.36;nan
39209;BME280;24929;51.982;4.664;2022-12-07T05:25:30;78006.91;;;-143.36;nan
39209;BME280;24929;51.982;4.664;2022-12-07T05:27:56;78039.03;;;-143.36;nan
39209;BME280;24929;51.982;4.664;2022-12-07T05:30:22;78057.09;;;-143.36;nan
39209;BME280;24929;51.982;4.664;2022-12-07T05:32:48;78031.00;;;-143.36;nan
39209;BME280;24929;51.982;4.664;2022-12-07T05:35:13;78029.00;;;-143.36;nan
39209;BME280;24929;51.982;4.664;2022-12-07T05:37:38;78057.09;;;-143.36;nan
39209;BME280;24929;51.982;4.664;2022-12-07T05:40:05;78027.00;;;-143.36;nan
39209;BME280;24929;51.982;4.664;2022-12-07T05:42:30;78037.03;;;-143.36;nan
39209;BME280;24929;51.982;4.664;2022-12-07T05:44:55;78049.06;;;-143.36;nan
39209;BME280;24929;51.982;4.664;2022-12-07T05:47:21;78073.16;;;-143.36;nan
39209;BME280;24929;51.982;4.664;2022-12-07T05:49:46;78053.09;;;-143.36;nan
39209;BME280;24929;51.982;4.664;2022-12-07T05:52:12;78051.06;;;-143.36;nan
39209;BME280;24929;51.982;4.664;2022-12-07T05:54:37;78075.16;;;-143.36;nan
39209;BME280;24929;51.982;4.664;2022-12-07T05:57:02;78117.31;;;-143.36;nan
39209;BME280;24929;51.982;4.664;2022-12-07T05:59:28;78145.44;;;-143.36;nan
39209;BME280;24929;51.982;4.664;2022-12-07T06:02:02;78035.03;;;-143.36;nan
39209;BME280;24929;51.982;4.664;2022-12-07T06:04:31;78004.91;;;-143.36;nan
39209;BME280;24929;51.982;4.664;2022-12-07T06:06:57;78053.09;;;-143.36;nan
39209;BME280;24929;51.982;4.664;2022-12-07T06:09:24;78014.94;;;-143.36;nan
39209;BME280;24929;51.982;4.664;2022-12-07T06:11:50;78051.06;;;-143.36;nan
39209;BME280;24929;51.982;4.664;2022-12-07T06:14:34;78067.13;;;-143.36;nan
39209;BME280;24929;51.982;4.664;2022-12-07T06:16:59;78041.03;;;-143.36;nan
39209;BME280;24929;51.982;4.664;2022-12-07T06:19:25;78047.06;;;-143.36;nan
39209;BME280;24929;51.982;4.664;2022-12-07T06:21:50;78053.09;;;-143.36;nan
39209;BME280;24929;51.982;4.664;2022-12-07T06:24:16;78047.06;;;-143.36;nan
39209;BME280;24929;51.982;4.664;2022-12-07T06:26:42;78107.28;;;-143.36;nan
39209;BME280;24929;51.982;4.664;2022-12-07T06:29:07;78085.19;;;-143.36;nan
39209;BME280;24929;51.982;4.664;2022-12-07T06:31:33;78119.34;;;-143.36;nan
39209;BME280;24929;51.982;4.664;2022-12-07T06:34:00;78159.47;;;-143.36;nan
39209;BME280;24929;51.982;4.664;2022-12-07T06:36:26;78173.53;;;-143.36;nan
39209;BME280;24929;51.982;4.664;2022-12-07T06:42:19;78157.47;;;-143.36;nan
39209;BME280;24929;51.982;4.664;2022-12-07T06:44:44;78179.56;;;-143.36;nan
39209;BME280;24929;51.982;4.664;2022-12-07T06:47:09;78177.56;;;-143.36;nan
39209;BME280;24929;51.982;4.664;2022-12-07T06:49:36;78183.56;;;-143.36;nan
39209;BME280;24929;51.982;4.664;2022-12-07T06:52:01;78157.47;;;-143.36;nan
39209;BME280;24929;51.982;4.664;2022-12-07T06:54:27;78159.47;;;-143.36;nan
39209;BME280;24929;51.982;4.664;2022-12-07T06:56:55;78155.47;;;-143.36;nan
39209;BME280;24929;51.982;4.664;2022-12-07T06:59:20;78179.56;;;-143.36;nan
39209;BME280;24929;51.982;4.664;2022-12-07T07:01:46;78189.59;;;-143.36;nan
39209;BME280;24929;51.982;4.664;2022-12-07T07:04:11;78145.44;;;-143.36;nan
39209;BME280;24929;51.982;4.664;2022-12-07T07:06:36;78121.34;;;-143.36;nan
39209;BME280;24929;51.982;4.664;2022-12-07T07:09:02;78065.13;;;-143.36;nan
39209;BME280;24929;51.982;4.664;2022-12-07T07:11:28;78041.03;;;-143.36;nan
39209;BME280;24929;51.982;4.664;2022-12-07T07:13:53;78033.00;;;-143.36;nan
39209;BME280;24929;51.982;4.664;2022-12-07T07:16:22;78031.00;;;-143.36;nan
39209;BME280;24929;51.982;4.664;2022-12-07T07:18:47;78027.00;;;-143.36;nan
39209;BME280;24929;51.982;4.664;2022-12-07T07:21:12;78010.94;;;-143.36;nan
39209;BME280;24929;51.982;4.664;2022-12-07T07:23:38;78089.22;;;-143.36;nan
39209;BME280;24929;51.982;4.664;2022-12-07T07:26:03;78085.19;;;-143.36;nan
39209;BME280;24929;51.982;4.664;2022-12-07T07:28:29;78099.25;;;-143.36;nan
39209;BME280;24929;51.982;4.664;2022-12-07T07:37:40;78125.34;;;-143.36;nan
39209;BME280;24929;51.982;4.664;2022-12-07T07:40:06;78109.28;;;-143.36;nan
39209;BME280;24929;51.982;4.664;2022-12-07T07:49:16;78125.34;;;-143.36;nan
39209;BME280;24929;51.982;4.664;2022-12-07T07:51:41;78125.34;;;-143.36;nan
39209;BME280;24929;51.982;4.664;2022-12-07T07:54:06;78117.31;;;-143.36;nan
39209;BME280;24929;51.982;4.664;2022-12-07T07:56:32;78099.25;;;-143.36;nan
39209;BME280;24929;51.982;4.664;2022-12-07T07:58:57;78055.09;;;-143.36;nan
39209;BME280;24929;51.982;4.664;2022-12-07T08:01:22;78071.16;;;-143.36;nan
39209;BME280;24929;51.982;4.664;2022-12-07T08:03:48;78087.22;;;-143.36;nan
39209;BME280;24929;51.982;4.664;2022-12-07T08:06:13;78087.22;;;-143.36;nan
39209;BME280;24929;51.982;4.664;2022-12-07T08:08:39;78099.25;;;-143.36;nan
39209;BME280;24929;51.982;4.664;2022-12-07T08:11:05;78067.13;;;-143.36;nan
39209;BME280;24929;51.982;4.664;2022-12-07T08:13:31;78097.25;;;-143.36;nan
39209;BME280;24929;51.982;4.664;2022-12-07T08:15:56;78069.16;;;-143.36;nan
39209;BME280;24929;51.982;4.664;2022-12-07T08:21:43;78097.25;;;-143.36;nan
39209;BME280;24929;51.982;4.664;2022-12-07T08:24:08;78099.25;;;-143.36;nan
39209;BME280;24929;51.982;4.664;2022-12-07T08:26:34;78101.25;;;-143.36;nan
39209;BME280;24929;51.982;4.664;2022-12-07T08:28:59;78085.19;;;-143.36;nan
39209;BME280;24929;51.982;4.664;2022-12-07T08:31:25;78087.22;;;-143.36;nan
39209;BME280;24929;51.982;4.664;2022-12-07T08:33:53;78085.19;;;-143.36;nan
39209;BME280;24929;51.982;4.664;2022-12-07T08:36:18;78077.19;;;-143.36;nan
39209;BME280;24929;51.982;4.664;2022-12-07T08:38:44;78063.13;;;-143.36;nan
39209;BME280;24929;51.982;4.664;2022-12-07T08:41:09;78069.16;;;-143.36;nan
39209;BME280;24929;51.982;4.664;2022-12-07T08:43:35;78079.19;;;-143.36;nan
39209;BME280;24929;51.982;4.664;2022-12-07T08:49:01;77998.88;;;-143.36;nan
39209;BME280;24929;51.982;4.664;2022-12-07T08:51:28;78012.94;;;-143.36;nan
39209;BME280;24929;51.982;4.664;2022-12-07T08:53:55;77964.75;;;-143.36;nan
39209;BME280;24929;51.982;4.664;2022-12-07T08:56:21;77996.88;;;-143.36;nan
39209;BME280;24929;51.982;4.664;2022-12-07T08:58:47;77990.84;;;-143.36;nan
39209;BME280;24929;51.982;4.664;2022-12-07T09:01:13;77972.78;;;-143.36;nan
39209;BME280;24929;51.982;4.664;2022-12-07T09:03:38;77946.69;;;-143.36;nan
39209;BME280;24929;51.982;4.664;2022-12-07T09:06:04;77926.63;;;-143.36;nan
39209;BME280;24929;51.982;4.664;2022-12-07T09:08:50;77846.31;;;-143.36;nan
39209;BME280;24929;51.982;4.664;2022-12-07T09:11:17;77904.53;;;-143.36;nan
39209;BME280;24929;51.982;4.664;2022-12-07T09:13:42;77904.53;;;-143.36;nan
39209;BME280;24929;51.982;4.664;2022-12-07T09:16:07;77882.44;;;-143.36;nan
39209;BME280;24929;51.982;4.664;2022-12-07T09:18:33;77874.41;;;-143.36;nan
39209;BME280;24929;51.982;4.664;2022-12-07T09:20:58;77850.34;;;-143.36;nan
39209;BME280;24929;51.982;4.664;2022-12-07T09:23:24;77882.44;;;-143.36;nan
39209;BME280;24929;51.982;4.664;2022-12-07T09:25:49;77848.31;;;-143.36;nan
39209;BME280;24929;51.982;4.664;2022-12-07T09:28:14;77816.22;;;-143.36;nan
39209;BME280;24929;51.982;4.664;2022-12-07T09:30:48;77808.19;;;-143.36;nan
39209;BME280;24929;51.982;4.664;2022-12-07T09:33:14;77844.31;;;-143.36;nan
39209;BME280;24929;51.982;4.664;2022-12-07T09:35:47;77852.34;;;-143.36;nan
39209;BME280;24929;51.982;4.664;2022-12-07T09:38:13;77866.38;;;-143.36;nan
39209;BME280;24929;51.982;4.664;2022-12-07T09:40:38;77854.34;;;-143.36;nan
39209;BME280;24929;51.982;4.664;2022-12-07T09:43:04;77820.22;;;-143.36;nan
39209;BME280;24929;51.982;4.664;2022-12-07T09:45:35;77778.06;;;-143.36;nan
39209;BME280;24929;51.982;4.664;2022-12-07T09:48:04;77810.19;;;-143.36;nan
39209;BME280;24929;51.982;4.664;2022-12-07T09:50:30;77808.19;;;-143.36;nan
39209;BME280;24929;51.982;4.664;2022-12-07T09:53:13;77749.97;;;-143.36;nan
39209;BME280;24929;51.982;4.664;2022-12-07T09:55:40;77778.06;;;-143.36;nan
39209;BME280;24929;51.982;4.664;2022-12-07T09:58:11;77731.91;;;-143.36;nan
39209;BME280;24929;51.982;4.664;2022-12-07T10:00:42;77796.13;;;-143.36;nan
39209;BME280;24929;51.982;4.664;2022-12-07T10:03:09;77774.06;;;-143.36;nan
39209;BME280;24929;51.982;4.664;2022-12-07T10:05:43;77741.94;;;-143.36;nan
39209;BME280;24929;51.982;4.664;2022-12-07T10:08:12;77737.91;;;-143.36;nan
39209;BME280;24929;51.982;4.664;2022-12-07T10:10:38;77766.03;;;-143.36;nan
39209;BME280;24929;51.982;4.664;2022-12-07T10:13:13;77733.91;;;-143.36;nan
39209;BME280;24929;51.982;4.664;2022-12-07T10:15:57;77671.69;;;-143.36;nan
39209;BME280;24929;51.982;4.664;2022-12-07T10:18:27;77709.81;;;-143.36;nan
39209;BME280;24929;51.982;4.664;2022-12-07T10:24:05;77613.47;;;-143.36;nan
39209;BME280;24929;51.982;4.664;2022-12-07T10:29:33;77635.56;;;-143.36;nan
39209;BME280;24929;51.982;4.664;2022-12-07T10:32:02;77623.50;;;-143.36;nan
39209;BME280;24929;51.982;4.664;2022-12-07T10:34:32;77659.63;;;-143.36;nan
39209;BME280;24929;51.982;4.664;2022-12-07T10:42:23;77693.75;;;-143.36;nan
39209;BME280;24929;51.982;4.664;2022-12-07T10:44:50;77655.63;;;-143.36;nan
39209;BME280;24929;51.982;4.664;2022-12-07T10:50:26;77587.38;;;-143.36;nan
39209;BME280;24929;51.982;4.664;2022-12-07T10:53:00;77581.34;;;-143.36;nan
39209;BME280;24929;51.982;4.664;2022-12-07T11:06:18;77551.25;;;-143.36;nan
39209;BME280;24929;51.982;4.664;2022-12-07T11:09:00;77587.38;;;-143.36;nan
39209;BME280;24929;51.982;4.664;2022-12-07T11:12:17;77573.31;;;-143.36;nan
39209;BME280;24929;51.982;4.664;2022-12-07T11:15:13;77569.31;;;-143.36;nan
39209;BME280;24929;51.982;4.664;2022-12-07T11:17:26;77531.16;;;-143.36;nan
39209;BME280;24929;51.982;4.664;2022-12-07T11:20:15;77515.13;;;-143.36;nan
39209;BME280;24929;51.982;4.664;2022-12-07T11:25:34;77517.13;;;-143.36;nan
39209;BME280;24929;51.982;4.664;2022-12-07T11:34:10;77422.78;;;-143.36;nan
39209;BME280;24929;51.982;4.664;2022-12-07T11:36:44;77386.66;;;-143.36;nan
39209;BME280;24929;51.982;4.664;2022-12-07T11:39:26;77346.50;;;-143.36;nan
39209;BME280;24929;51.982;4.664;2022-12-07T11:42:09;77374.63;;;-143.36;nan
39209;BME280;24929;51.982;4.664;2022-12-07T11:45:09;77372.59;;;-143.36;nan
39209;BME280;24929;51.982;4.664;2022-12-07T11:50:29;77440.84;;;-143.36;nan
39209;BME280;24929;51.982;4.664;2022-12-07T11:55:47;77434.81;;;-143.36;nan
39209;BME280;24929;51.982;4.664;2022-12-07T12:00:49;77513.09;;;-143.36;nan
39209;BME280;24929;51.982;4.664;2022-12-07T12:03:25;77521.13;;;-143.36;nan
39209;BME280;24929;51.982;4.664;2022-12-07T12:05:55;77593.41;;;-143.36;nan
39209;BME280;24929;51.982;4.664;2022-12-07T12:08:35;77555.25;;;-143.36;nan
39209;BME280;24929;51.982;4.664;2022-12-07T12:11:36;77549.25;;;-143.36;nan
39209;BME280;24929;51.982;4.664;2022-12-07T12:22:37;77589.38;;;-143.36;nan
39209;BME280;24929;51.982;4.664;2022-12-07T12:25:06;77661.66;;;-143.36;nan
39209;BME280;24929;51.982;4.664;2022-12-07T12:27:37;77693.75;;;-143.36;nan
39209;BME280;24929;51.982;4.664;2022-12-07T12:30:06;77693.75;;;-143.36;nan
39209;BME280;24929;51.982;4.664;2022-12-07T12:32:40;77641.56;;;-143.36;nan
39209;BME280;24929;51.982;4.664;2022-12-07T12:37:52;77601.44;;;-143.36;nan
39209;BME280;24929;51.982;4.664;2022-12-07T12:42:50;77559.28;;;-143.36;nan
39209;BME280;24929;51.982;4.664;2022-12-07T12:53:01;77495.03;;;-143.36;nan
39209;BME280;24929;51.982;4.664;2022-12-07T13:00:46;77434.81;;;-143.36;nan
39209;BME280;24929;51.982;4.664;2022-12-07T13:03:27;77390.66;;;-143.36;nan
39209;BME280;24929;51.982;4.664;2022-12-07T13:06:31;77390.66;;;-143.36;nan
39209;BME280;24929;51.982;4.664;2022-12-07T13:09:00;77481.00;;;-143.36;nan
39209;BME280;24929;51.982;4.664;2022-12-07T13:11:35;77438.84;;;-143.36;nan
39209;BME280;24929;51.982;4.664;2022-12-07T13:20:00;77354.53;;;-143.36;nan
39209;BME280;24929;51.982;4.664;2022-12-07T13:27:35;77448.88;;;-143.36;nan
39209;BME280;24929;51.982;4.664;2022-12-07T13:30:13;77450.88;;;-143.36;nan
39209;BME280;24929;51.982;4.664;2022-12-07T13:32:39;77481.00;;;-143.36;nan
39209;BME280;24929;51.982;4.664;2022-12-07T13:37:53;77474.97;;;-143.36;nan
39209;BME280;24929;51.982;4.664;2022-12-07T13:40:21;77460.91;;;-143.36;nan
39209;BME280;24929;51.982;4.664;2022-12-07T13:42:47;77472.97;;;-143.36;nan
39209;BME280;24929;51.982;4.664;2022-12-07T13:45:30;77416.75;;;-143.36;nan
39209;BME280;24929;51.982;4.664;2022-12-07T13:48:23;77396.69;;;-143.36;nan
39209;BME280;24929;51.982;4.664;2022-12-07T13:50:56;77394.69;;;-143.36;nan
39209;BME280;24929;51.982;4.664;2022-12-07T13:53:22;77406.72;;;-143.36;nan
39209;BME280;24929;51.982;4.664;2022-12-07T13:55:47;77350.53;;;-143.36;nan
39209;BME280;24929;51.982;4.664;2022-12-07T13:58:13;77388.66;;;-143.36;nan
39209;BME280;24929;51.982;4.664;2022-12-07T14:00:41;77338.47;;;-143.36;nan
39209;BME280;24929;51.982;4.664;2022-12-07T14:05:40;77324.44;;;-143.36;nan
39209;BME280;24929;51.982;4.664;2022-12-07T14:08:22;77312.38;;;-143.36;nan
39209;BME280;24929;51.982;4.664;2022-12-07T14:13:30;77334.47;;;-143.36;nan
39209;BME280;24929;51.982;4.664;2022-12-07T14:15:56;77404.72;;;-143.36;nan
39209;BME280;24929;51.982;4.664;2022-12-07T14:18:30;77318.41;;;-143.36;nan
39209;BME280;24929;51.982;4.664;2022-12-07T14:21:19;77310.38;;;-143.36;nan
39209;BME280;24929;51.982;4.664;2022-12-07T14:24:18;77382.63;;;-143.36;nan
39209;BME280;24929;51.982;4.664;2022-12-07T14:26:47;77468.94;;;-143.36;nan
39209;BME280;24929;51.982;4.664;2022-12-07T14:29:42;77430.81;;;-143.36;nan
39209;BME280;24929;51.982;4.664;2022-12-07T14:32:28;77460.91;;;-143.36;nan
39209;BME280;24929;51.982;4.664;2022-12-07T14:35:12;77448.88;;;-143.36;nan
39209;BME280;24929;51.982;4.664;2022-12-07T14:37:39;77468.94;;;-143.36;nan
39209;BME280;24929;51.982;4.664;2022-12-07T14:40:05;77468.94;;;-143.36;nan
39209;BME280;24929;51.982;4.664;2022-12-07T14:42:31;77501.06;;;-143.36;nan
39209;BME280;24929;51.982;4.664;2022-12-07T14:44:58;77444.88;;;-143.36;nan
39209;BME280;24929;51.982;4.664;2022-12-07T14:47:25;77424.78;;;-143.36;nan
39209;BME280;24929;51.982;4.664;2022-12-07T14:49:50;77460.91;;;-143.36;nan
39209;BME280;24929;51.982;4.664;2022-12-07T14:52:19;77442.84;;;-143.36;nan
39209;BME280;24929;51.982;4.664;2022-12-07T14:54:45;77456.91;;;-143.36;nan
39209;BME280;24929;51.982;4.664;2022-12-07T14:57:11;77434.81;;;-143.36;nan
39209;BME280;24929;51.982;4.664;2022-12-07T14:59:37;77440.84;;;-143.36;nan
39209;BME280;24929;51.982;4.664;2022-12-07T15:02:02;77474.97;;;-143.36;nan
39209;BME280;24929;51.982;4.664;2022-12-07T15:04:28;77497.06;;;-143.36;nan
39209;BME280;24929;51.982;4.664;2022-12-07T15:06:57;77444.88;;;-143.36;nan
39209;BME280;24929;51.982;4.664;2022-12-07T15:09:24;77464.94;;;-143.36;nan
39209;BME280;24929;51.982;4.664;2022-12-07T15:11:49;77476.97;;;-143.36;nan
39209;BME280;24929;51.982;4.664;2022-12-07T15:14:15;77489.03;;;-143.36;nan
39209;BME280;24929;51.982;4.664;2022-12-07T15:16:42;77468.94;;;-143.36;nan
39209;BME280;24929;51.982;4.664;2022-12-07T15:19:19;77446.88;;;-143.36;nan
39209;BME280;24929;51.982;4.664;2022-12-07T15:21:47;77503.06;;;-143.36;nan
39209;BME280;24929;51.982;4.664;2022-12-07T15:24:13;77497.06;;;-143.36;nan
39209;BME280;24929;51.982;4.664;2022-12-07T15:26:39;77509.09;;;-143.36;nan
39209;BME280;24929;51.982;4.664;2022-12-07T15:29:05;77501.06;;;-143.36;nan
39209;BME280;24929;51.982;4.664;2022-12-07T15:31:32;77571.31;;;-143.36;nan
39209;BME280;24929;51.982;4.664;2022-12-07T15:33:57;77563.28;;;-143.36;nan